createdAt,value
2019-05-14T00:00:13.196Z,103460.64
2019-05-14T00:01:14.969Z,103460.48
2019-05-14T00:02:15.420Z,103460.36
2019-05-14T00:03:15.983Z,103459.66
2019-05-14T00:04:16.385Z,103459.81
2019-05-14T00:05:16.975Z,103459.21
2019-05-14T00:06:16.467Z,103458.77
2019-05-14T00:07:18.020Z,103458.25
2019-05-14T00:08:18.656Z,103458.05
2019-05-14T00:09:21.395Z,103458.28
2019-05-14T00:10:18.865Z,103457.83
2019-05-14T00:11:21.947Z,103457.66
2019-05-14T00:12:22.119Z,103457.05
2019-05-14T00:13:21.433Z,103456.61
2019-05-14T00:14:23.278Z,103456.17
2019-05-14T00:15:21.836Z,103455.20
2019-05-14T00:16:24.355Z,103454.77
2019-05-14T00:17:22.451Z,103454.09
2019-05-14T00:18:24.089Z,103453.30
2019-05-14T00:19:24.514Z,103453.12
2019-05-14T00:20:24.959Z,103452.84
2019-05-14T00:21:25.518Z,103453.09
2019-05-14T00:22:26.056Z,103452.55
2019-05-14T00:23:26.695Z,103452.04
2019-05-14T00:24:27.255Z,103451.59
2019-05-14T00:25:26.810Z,103450.98
2019-05-14T00:26:27.872Z,103450.61
2019-05-14T00:27:31.056Z,103449.41
2019-05-14T00:28:28.639Z,103448.53
2019-05-14T00:29:29.179Z,103447.76
2019-05-14T00:30:31.664Z,103446.72
2019-05-14T00:31:31.761Z,103445.77
2019-05-14T00:32:31.768Z,103444.83
2019-05-14T00:33:31.717Z,103444.31
2019-05-14T00:34:32.032Z,103443.71
2019-05-14T00:35:35.773Z,103443.27
2019-05-14T00:36:33.067Z,103442.81
2019-05-14T00:37:34.474Z,103441.78
2019-05-14T00:38:34.943Z,103441.27
2019-05-14T00:39:34.433Z,103440.34
2019-05-14T00:40:35.901Z,103440.25
2019-05-14T00:41:36.682Z,103439.47
2019-05-14T00:42:37.239Z,103438.95
2019-05-14T00:43:37.765Z,103438.44
2019-05-14T00:44:51.634Z,103438.17
2019-05-14T00:45:37.893Z,103437.81
2019-05-14T00:46:41.118Z,103437.80
2019-05-14T00:47:41.568Z,103437.51
2019-05-14T00:48:42.029Z,103437.08
2019-05-14T00:49:42.490Z,103436.75
2019-05-14T00:50:42.098Z,103436.72
2019-05-14T00:51:41.535Z,103436.03
2019-05-14T00:52:46.123Z,103436.09
2019-05-14T00:53:42.481Z,103435.58
2019-05-14T00:54:43.933Z,103435.73
2019-05-14T00:55:44.427Z,103435.19
2019-05-14T00:56:44.972Z,103435.10
2019-05-14T00:57:45.550Z,103434.92
2019-05-14T00:58:46.196Z,103434.62
2019-05-14T00:58:56.737Z,103438.25
2019-05-14T00:59:58.151Z,103437.48
2019-05-14T01:00:58.639Z,103438.05
2019-05-14T01:01:59.179Z,103438.12
2019-05-14T01:03:01.790Z,103438.64
2019-05-14T01:04:01.116Z,103438.19
2019-05-14T01:05:01.783Z,103438.43
2019-05-14T01:06:02.220Z,103438.77
2019-05-14T01:07:01.545Z,103439.34
2019-05-14T01:08:01.889Z,103439.33
2019-05-14T01:09:01.589Z,103439.17
2019-05-14T01:10:01.639Z,103439.23
2019-05-14T01:11:03.090Z,103439.72
2019-05-14T01:12:03.859Z,103439.73
2019-05-14T01:13:04.251Z,103439.95
2019-05-14T01:14:04.763Z,103439.94
2019-05-14T01:15:09.737Z,103439.83
2019-05-14T01:16:04.848Z,103439.38
2019-05-14T01:17:06.301Z,103439.50
2019-05-14T01:18:06.927Z,103439.33
2019-05-14T01:19:07.413Z,103438.72
2019-05-14T01:20:08.025Z,103438.94
2019-05-14T01:21:08.491Z,103438.59
2019-05-14T01:22:08.945Z,103438.55
2019-05-14T01:23:11.359Z,103437.80
2019-05-14T01:24:08.646Z,103437.60
2019-05-14T01:25:11.999Z,103437.42
2019-05-14T01:26:11.516Z,103436.89
2019-05-14T01:27:12.082Z,103436.97
2019-05-14T01:28:11.274Z,103436.78
2019-05-14T01:29:12.028Z,103436.50
2019-05-14T01:30:12.523Z,103436.16
2019-05-14T01:31:14.713Z,103436.20
2019-05-14T01:32:12.354Z,103436.19
2019-05-14T01:33:13.823Z,103436.27
2019-05-14T01:34:14.288Z,103435.91
2019-05-14T01:35:15.001Z,103436.39
2019-05-14T01:36:15.477Z,103436.11
2019-05-14T01:37:15.883Z,103436.00
2019-05-14T01:38:16.430Z,103436.08
2019-05-14T01:39:16.949Z,103435.80
2019-05-14T01:40:17.366Z,103435.78
2019-05-14T01:41:18.048Z,103435.78
2019-05-14T01:42:18.418Z,103435.83
2019-05-14T01:43:18.905Z,103436.08
2019-05-14T01:44:21.407Z,103435.89
2019-05-14T01:45:25.109Z,103436.56
2019-05-14T01:46:21.030Z,103436.64
2019-05-14T01:47:21.417Z,103436.61
2019-05-14T01:48:21.949Z,103436.34
2019-05-14T01:49:22.183Z,103436.19
2019-05-14T01:50:21.716Z,103436.36
2019-05-14T01:51:22.386Z,103436.45
2019-05-14T01:52:22.834Z,103436.19
2019-05-14T01:53:24.249Z,103435.99
2019-05-14T01:54:24.797Z,103435.91
2019-05-14T01:55:25.349Z,103435.63
2019-05-14T01:56:24.698Z,103435.52
2019-05-14T01:57:26.175Z,103435.41
2019-05-14T01:58:31.180Z,103435.30
2019-05-14T01:59:26.117Z,103434.91
2019-05-14T02:00:26.528Z,103435.16
2019-05-14T02:01:28.049Z,103434.81
2019-05-14T02:02:28.708Z,103434.95
2019-05-14T02:02:37.246Z,103436.11
2019-05-14T02:03:40.959Z,103435.52
2019-05-14T02:04:38.450Z,103435.50
2019-05-14T02:05:41.574Z,103435.17
2019-05-14T02:06:41.313Z,103434.77
2019-05-14T02:07:42.059Z,103434.24
2019-05-14T02:08:41.405Z,103433.47
2019-05-14T02:09:41.955Z,103433.64
2019-05-14T02:10:42.061Z,103433.24
2019-05-14T02:11:42.148Z,103433.31
2019-05-14T02:12:43.659Z,103433.05
2019-05-14T02:13:44.335Z,103432.78
2019-05-14T02:14:44.706Z,103432.28
2019-05-14T02:15:45.121Z,103432.05
2019-05-14T02:16:45.676Z,103431.78
2019-05-14T02:17:46.230Z,103431.02
2019-05-14T02:18:46.656Z,103430.63
2019-05-14T02:19:47.087Z,103430.45
2019-05-14T02:20:47.572Z,103429.82
2019-05-14T02:21:47.772Z,103429.66
2019-05-14T02:22:48.180Z,103429.30
2019-05-14T02:23:48.672Z,103429.04
2019-05-14T02:24:49.144Z,103428.95
2019-05-14T02:25:51.686Z,103428.59
2019-05-14T02:26:51.372Z,103428.50
2019-05-14T02:27:51.788Z,103427.71
2019-05-14T02:28:51.418Z,103427.19
2019-05-14T02:29:51.925Z,103426.77
2019-05-14T02:30:57.451Z,103426.77
2019-05-14T02:31:51.653Z,103426.31
2019-05-14T02:32:53.276Z,103426.65
2019-05-14T02:33:53.686Z,103425.96
2019-05-14T02:34:54.252Z,103426.27
2019-05-14T02:35:54.745Z,103426.25
2019-05-14T02:36:55.129Z,103426.39
2019-05-14T02:37:55.636Z,103426.05
2019-05-14T02:38:56.026Z,103426.00
2019-05-14T02:39:59.481Z,103425.72
2019-05-14T02:40:55.951Z,103425.70
2019-05-14T02:41:58.950Z,103425.52
2019-05-14T02:42:59.347Z,103425.47
2019-05-14T02:43:59.378Z,103425.62
2019-05-14T02:44:59.310Z,103425.66
2019-05-14T02:46:10.828Z,103425.95
2019-05-14T02:46:59.167Z,103425.91
2019-05-14T02:48:00.450Z,103426.20
2019-05-14T02:48:59.798Z,103426.40
2019-05-14T02:49:59.971Z,103425.78
2019-05-14T02:51:01.615Z,103426.10
2019-05-14T02:52:02.538Z,103426.31
2019-05-14T02:53:03.063Z,103425.80
2019-05-14T02:54:03.727Z,103425.61
2019-05-14T02:55:04.106Z,103425.09
2019-05-14T02:56:04.800Z,103424.70
2019-05-14T02:57:05.265Z,103424.34
2019-05-14T02:58:04.616Z,103424.30
2019-05-14T02:59:09.504Z,103424.11
2019-05-14T03:00:05.751Z,103423.83
2019-05-14T03:01:09.444Z,103423.44
2019-05-14T03:02:09.547Z,103423.12
2019-05-14T03:03:09.881Z,103422.66
2019-05-14T03:04:09.111Z,103422.11
2019-05-14T03:05:09.797Z,103421.85
2019-05-14T03:06:09.598Z,103421.39
2019-05-14T03:07:10.633Z,103420.97
2019-05-14T03:08:10.051Z,103420.45
2019-05-14T03:09:11.480Z,103420.33
2019-05-14T03:09:20.560Z,103417.37
2019-05-14T03:10:20.393Z,103416.77
2019-05-14T03:11:21.826Z,103416.77
2019-05-14T03:12:22.311Z,103416.44
2019-05-14T03:13:22.949Z,103416.09
2019-05-14T03:14:23.430Z,103415.53
2019-05-14T03:15:23.974Z,103415.35
2019-05-14T03:16:30.854Z,103415.28
2019-05-14T03:17:23.912Z,103415.02
2019-05-14T03:18:25.367Z,103414.45
2019-05-14T03:19:25.822Z,103414.49
2019-05-14T03:20:28.776Z,103414.14
2019-05-14T03:21:25.705Z,103413.94
2019-05-14T03:22:41.650Z,103413.11
2019-05-14T03:23:30.220Z,103412.48
2019-05-14T03:24:28.809Z,103411.82
2019-05-14T03:25:30.165Z,103411.22
2019-05-14T03:26:29.357Z,103409.89
2019-05-14T03:27:30.418Z,103408.63
2019-05-14T03:28:30.527Z,103408.28
2019-05-14T03:29:30.989Z,103407.25
2019-05-14T03:30:32.394Z,103406.09
2019-05-14T03:31:33.082Z,103405.59
2019-05-14T03:32:33.127Z,103404.98
2019-05-14T03:33:33.946Z,103404.22
2019-05-14T03:34:33.657Z,103403.89
2019-05-14T03:35:42.152Z,103403.89
2019-05-14T03:36:35.338Z,103403.45
2019-05-14T03:37:34.338Z,103403.12
2019-05-14T03:38:35.773Z,103402.89
2019-05-14T03:39:39.396Z,103402.12
2019-05-14T03:40:35.835Z,103401.42
2019-05-14T03:41:39.690Z,103401.09
2019-05-14T03:42:39.657Z,103400.50
2019-05-14T03:43:39.158Z,103400.30
2019-05-14T03:44:39.999Z,103399.80
2019-05-14T03:45:39.104Z,103399.61
2019-05-14T03:46:49.530Z,103398.74
2019-05-14T03:47:39.696Z,103399.09
2019-05-14T03:48:40.228Z,103398.72
2019-05-14T03:49:40.357Z,103398.66
2019-05-14T03:50:40.813Z,103398.56
2019-05-14T03:51:42.411Z,103398.80
2019-05-14T03:52:42.854Z,103398.80
2019-05-14T03:53:56.923Z,103398.77
2019-05-14T03:54:42.668Z,103399.11
2019-05-14T03:55:44.206Z,103399.08
2019-05-14T03:56:44.631Z,103399.09
2019-05-14T03:57:45.300Z,103399.47
2019-05-14T03:58:49.238Z,103398.94
2019-05-14T03:59:45.272Z,103398.75
2019-05-14T04:00:45.478Z,103399.16
2019-05-14T04:01:50.713Z,103399.23
2019-05-14T04:02:49.082Z,103399.20
2019-05-14T04:03:50.315Z,103399.42
2019-05-14T04:04:50.259Z,103399.76
2019-05-14T04:05:49.502Z,103399.40
2019-05-14T04:06:49.616Z,103399.37
2019-05-14T04:07:50.257Z,103399.19
2019-05-14T04:08:50.001Z,103399.23
2019-05-14T04:09:50.070Z,103399.61
2019-05-14T04:10:54.201Z,103399.34
2019-05-14T04:11:51.513Z,103399.83
2019-05-14T04:12:52.883Z,103400.90
2019-05-14T04:13:53.407Z,103401.27
2019-05-14T04:14:52.833Z,103402.45
2019-05-14T04:15:54.392Z,103403.02
2019-05-14T04:17:05.207Z,103403.16
2019-05-14T04:17:54.848Z,103404.58
2019-05-14T04:18:59.240Z,103405.14
2019-05-14T04:19:55.977Z,103405.82
2019-05-14T04:20:59.426Z,103405.86
2019-05-14T04:21:59.905Z,103406.50
2019-05-14T04:23:00.064Z,103407.25
2019-05-14T04:23:59.501Z,103407.55
2019-05-14T04:24:59.686Z,103407.87
2019-05-14T04:26:00.523Z,103407.94
2019-05-14T04:27:07.193Z,103408.41
2019-05-14T04:27:59.917Z,103408.39
2019-05-14T04:29:01.285Z,103409.06
2019-05-14T04:30:01.879Z,103408.96
2019-05-14T04:31:01.206Z,103408.12
2019-05-14T04:31:10.232Z,103408.02
2019-05-14T04:32:11.794Z,103407.29
2019-05-14T04:33:11.237Z,103407.19
2019-05-14T04:34:12.855Z,103406.86
2019-05-14T04:35:13.429Z,103406.66
2019-05-14T04:36:14.007Z,103407.27
2019-05-14T04:37:14.407Z,103407.33
2019-05-14T04:38:15.045Z,103407.23
2019-05-14T04:39:15.752Z,103407.88
2019-05-14T04:40:18.902Z,103408.48
2019-05-14T04:41:19.222Z,103409.31
2019-05-14T04:42:16.201Z,103408.98
2019-05-14T04:43:19.236Z,103409.33
2019-05-14T04:44:19.216Z,103409.39
2019-05-14T04:45:19.719Z,103409.51
2019-05-14T04:46:19.949Z,103409.58
2019-05-14T04:47:31.416Z,103409.45
2019-05-14T04:48:31.066Z,103410.02
2019-05-14T04:49:20.125Z,103409.14
2019-05-14T04:50:20.393Z,103409.17
2019-05-14T04:51:20.631Z,103408.55
2019-05-14T04:52:22.257Z,103408.02
2019-05-14T04:53:22.678Z,103407.80
2019-05-14T04:54:23.139Z,103407.34
2019-05-14T04:55:23.822Z,103407.22
2019-05-14T04:56:24.386Z,103407.13
2019-05-14T04:57:25.745Z,103406.86
2019-05-14T04:58:24.405Z,103406.25
2019-05-14T04:59:29.686Z,103405.50
2019-05-14T05:00:25.791Z,103404.66
2019-05-14T05:01:29.468Z,103403.94
2019-05-14T05:02:29.839Z,103402.72
2019-05-14T05:03:30.333Z,103401.86
2019-05-14T05:04:29.904Z,103401.39
2019-05-14T05:05:29.984Z,103401.08
2019-05-14T05:06:29.294Z,103400.47
2019-05-14T05:07:29.965Z,103399.47
2019-05-14T05:08:30.744Z,103398.97
2019-05-14T05:09:30.320Z,103398.88
2019-05-14T05:10:31.840Z,103398.85
2019-05-14T05:11:32.379Z,103398.06
2019-05-14T05:12:32.981Z,103397.61
2019-05-14T05:13:33.357Z,103397.30
2019-05-14T05:14:33.773Z,103396.66
2019-05-14T05:15:34.576Z,103395.95
2019-05-14T05:16:35.088Z,103395.72
2019-05-14T05:17:44.166Z,103395.07
2019-05-14T05:18:35.072Z,103394.41
2019-05-14T05:19:39.245Z,103393.88
2019-05-14T05:20:39.164Z,103393.78
2019-05-14T05:21:38.711Z,103393.46
2019-05-14T05:22:39.497Z,103392.67
2019-05-14T05:23:38.702Z,103392.17
2019-05-14T05:24:38.289Z,103391.76
2019-05-14T05:25:38.678Z,103390.86
2019-05-14T05:26:40.392Z,103390.58
2019-05-14T05:27:41.354Z,103389.86
2019-05-14T05:28:41.907Z,103389.53
2019-05-14T05:29:42.453Z,103389.20
2019-05-14T05:30:42.943Z,103388.97
2019-05-14T05:31:43.486Z,103388.39
2019-05-14T05:32:44.033Z,103387.72
2019-05-14T05:33:44.755Z,103387.70
2019-05-14T05:34:45.252Z,103387.38
2019-05-14T05:35:45.894Z,103387.09
2019-05-14T05:35:54.470Z,103389.40
2019-05-14T05:36:55.850Z,103388.80
2019-05-14T05:37:58.286Z,103388.16
2019-05-14T05:38:56.031Z,103387.44
2019-05-14T05:39:58.361Z,103387.41
2019-05-14T05:40:59.946Z,103387.48
2019-05-14T05:41:58.490Z,103386.91
2019-05-14T05:42:58.367Z,103386.17
2019-05-14T05:43:59.105Z,103384.85
2019-05-14T05:44:59.432Z,103384.02
2019-05-14T05:46:00.869Z,103382.97
2019-05-14T05:47:01.302Z,103381.92
2019-05-14T05:48:02.029Z,103380.79
2019-05-14T05:49:01.437Z,103379.59
2019-05-14T05:50:02.614Z,103378.80
2019-05-14T05:51:03.172Z,103377.83
2019-05-14T05:52:03.602Z,103376.84
2019-05-14T05:53:03.988Z,103376.52
2019-05-14T05:54:04.367Z,103375.20
2019-05-14T05:55:04.930Z,103374.76
2019-05-14T05:56:05.452Z,103373.55
2019-05-14T05:57:05.957Z,103372.83
2019-05-14T05:58:08.525Z,103372.45
2019-05-14T05:59:06.113Z,103372.09
2019-05-14T06:00:09.460Z,103372.17
2019-05-14T06:01:09.683Z,103371.91
2019-05-14T06:02:09.427Z,103371.98
2019-05-14T06:03:10.768Z,103371.22
2019-05-14T06:04:08.837Z,103371.47
2019-05-14T06:05:09.090Z,103371.68
2019-05-14T06:06:13.589Z,103371.97
2019-05-14T06:07:10.092Z,103372.08
2019-05-14T06:08:11.587Z,103372.34
2019-05-14T06:09:12.169Z,103372.13
2019-05-14T06:10:12.763Z,103372.41
2019-05-14T06:11:13.450Z,103372.28
2019-05-14T06:12:13.930Z,103372.37
2019-05-14T06:13:14.588Z,103372.08
2019-05-14T06:14:14.050Z,103372.14
2019-05-14T06:15:15.556Z,103371.28
2019-05-14T06:16:18.417Z,103370.47
2019-05-14T06:17:15.881Z,103370.21
2019-05-14T06:18:21.739Z,103369.98
2019-05-14T06:19:18.546Z,103369.78
2019-05-14T06:20:18.978Z,103369.72
2019-05-14T06:21:18.983Z,103369.31
2019-05-14T06:22:18.826Z,103368.98
2019-05-14T06:23:19.068Z,103368.25
2019-05-14T06:24:19.560Z,103367.94
2019-05-14T06:25:21.113Z,103367.20
2019-05-14T06:26:20.348Z,103366.91
2019-05-14T06:27:21.866Z,103366.19
2019-05-14T06:28:22.435Z,103365.39
2019-05-14T06:29:22.870Z,103364.88
2019-05-14T06:30:23.450Z,103364.32
2019-05-14T06:31:23.988Z,103364.10
2019-05-14T06:32:24.396Z,103363.00
2019-05-14T06:33:24.924Z,103361.63
2019-05-14T06:34:25.388Z,103360.55
2019-05-14T06:35:28.479Z,103360.38
2019-05-14T06:36:26.100Z,103359.52
2019-05-14T06:37:30.170Z,103358.50
2019-05-14T06:38:29.516Z,103358.11
2019-05-14T06:39:28.411Z,103358.03
2019-05-14T06:40:28.785Z,103357.30
2019-05-14T06:41:29.087Z,103356.92
2019-05-14T06:41:42.460Z,103355.18
2019-05-14T06:42:39.503Z,103354.58
2019-05-14T06:43:39.367Z,103354.45
2019-05-14T06:44:39.312Z,103353.85
2019-05-14T06:45:40.980Z,103353.32
2019-05-14T06:46:41.481Z,103353.37
2019-05-14T06:47:42.115Z,103352.49
2019-05-14T06:48:42.697Z,103352.22
2019-05-14T06:49:42.460Z,103351.92
2019-05-14T06:50:43.903Z,103351.50
2019-05-14T06:51:44.560Z,103350.92
2019-05-14T06:52:45.125Z,103350.50
2019-05-14T06:53:45.597Z,103349.75
2019-05-14T06:54:46.061Z,103349.31
2019-05-14T06:55:48.402Z,103349.10
2019-05-14T06:56:45.950Z,103349.15
2019-05-14T06:57:48.126Z,103348.73
2019-05-14T06:58:49.073Z,103348.01
2019-05-14T06:59:48.375Z,103347.33
2019-05-14T07:00:49.510Z,103346.95
2019-05-14T07:01:49.105Z,103346.97
2019-05-14T07:02:49.350Z,103346.69
2019-05-14T07:03:49.773Z,103345.61
2019-05-14T07:04:51.521Z,103344.58
2019-05-14T07:05:52.047Z,103343.86
2019-05-14T07:06:52.492Z,103343.30
2019-05-14T07:07:52.962Z,103343.12
2019-05-14T07:08:53.744Z,103342.35
2019-05-14T07:09:54.281Z,103342.14
2019-05-14T07:10:54.665Z,103342.23
2019-05-14T07:11:55.394Z,103341.59
2019-05-14T07:12:55.783Z,103341.16
2019-05-14T07:13:58.137Z,103340.95
2019-05-14T07:14:55.581Z,103340.26
2019-05-14T07:15:58.353Z,103339.48
2019-05-14T07:16:58.912Z,103339.06
2019-05-14T07:17:58.390Z,103338.63
2019-05-14T07:18:59.147Z,103338.19
2019-05-14T07:19:58.657Z,103337.41
2019-05-14T07:21:00.334Z,103337.07
2019-05-14T07:22:00.935Z,103336.52
2019-05-14T07:23:01.589Z,103335.65
2019-05-14T07:24:02.324Z,103334.84
2019-05-14T07:25:02.991Z,103334.28
2019-05-14T07:26:02.546Z,103333.99
2019-05-14T07:27:04.055Z,103333.64
2019-05-14T07:28:04.463Z,103333.08
2019-05-14T07:29:04.898Z,103332.36
2019-05-14T07:30:05.621Z,103332.03
2019-05-14T07:31:06.112Z,103331.73
2019-05-14T07:32:09.080Z,103330.85
2019-05-14T07:33:06.186Z,103329.95
2019-05-14T07:34:08.928Z,103329.75
2019-05-14T07:35:09.108Z,103328.78
2019-05-14T07:36:08.908Z,103327.86
2019-05-14T07:37:09.448Z,103326.88
2019-05-14T07:38:09.300Z,103325.98
2019-05-14T07:39:09.930Z,103324.84
2019-05-14T07:40:11.804Z,103323.67
2019-05-14T07:41:11.076Z,103322.68
2019-05-14T07:42:11.737Z,103322.13
2019-05-14T07:43:12.366Z,103321.55
2019-05-14T07:44:12.987Z,103320.61
2019-05-14T07:45:14.023Z,103319.30
2019-05-14T07:46:14.174Z,103318.30
2019-05-14T07:47:14.235Z,103317.47
2019-05-14T07:48:14.715Z,103316.68
2019-05-14T07:49:15.637Z,103315.35
2019-05-14T07:49:24.788Z,103304.56
2019-05-14T07:50:28.826Z,103304.14
2019-05-14T07:51:28.239Z,103303.23
2019-05-14T07:52:28.423Z,103302.62
2019-05-14T07:53:36.079Z,103302.23
2019-05-14T07:54:28.328Z,103301.22
2019-05-14T07:55:28.845Z,103300.38
2019-05-14T07:56:29.437Z,103299.48
2019-05-14T07:57:29.365Z,103299.31
2019-05-14T07:58:29.365Z,103298.66
2019-05-14T07:59:29.179Z,103298.13
2019-05-14T08:00:30.725Z,103297.42
2019-05-14T08:01:31.101Z,103296.54
2019-05-14T08:02:31.251Z,103295.38
2019-05-14T08:03:32.090Z,103294.69
2019-05-14T08:04:32.640Z,103293.67
2019-05-14T08:05:33.251Z,103292.33
2019-05-14T08:06:33.730Z,103291.31
2019-05-14T08:07:34.270Z,103289.66
2019-05-14T08:08:34.706Z,103288.80
2019-05-14T08:09:34.737Z,103287.97
2019-05-14T08:10:35.279Z,103287.03
2019-05-14T08:11:35.669Z,103286.04
2019-05-14T08:12:36.019Z,103284.94
2019-05-14T08:13:38.784Z,103283.83
2019-05-14T08:14:45.331Z,103282.13
2019-05-14T08:15:38.648Z,103281.16
2019-05-14T08:16:38.162Z,103280.91
2019-05-14T08:17:38.791Z,103279.59
2019-05-14T08:18:39.527Z,103278.25
2019-05-14T08:19:38.765Z,103277.06
2019-05-14T08:20:38.724Z,103276.30
2019-05-14T08:21:40.391Z,103275.77
2019-05-14T08:22:40.744Z,103274.95
2019-05-14T08:23:41.320Z,103273.64
2019-05-14T08:24:41.820Z,103272.44
2019-05-14T08:25:42.504Z,103271.16
2019-05-14T08:26:44.239Z,103270.19
2019-05-14T08:27:41.824Z,103269.00
2019-05-14T08:28:42.834Z,103267.71
2019-05-14T08:29:43.457Z,103266.50
2019-05-14T08:30:42.781Z,103265.05
2019-05-14T08:31:44.730Z,103263.28
2019-05-14T08:32:45.287Z,103261.26
2019-05-14T08:33:48.532Z,103259.87
2019-05-14T08:34:47.835Z,103258.27
2019-05-14T08:35:46.002Z,103256.43
2019-05-14T08:36:48.373Z,103254.44
2019-05-14T08:37:49.232Z,103253.16
2019-05-14T08:38:50.073Z,103251.72
2019-05-14T08:39:48.828Z,103250.52
2019-05-14T08:40:49.108Z,103249.13
2019-05-14T08:41:58.603Z,103247.69
2019-05-14T08:42:50.320Z,103246.80
2019-05-14T08:43:50.349Z,103245.41
2019-05-14T08:44:51.581Z,103244.27
2019-05-14T08:45:51.653Z,103243.19
2019-05-14T08:46:52.295Z,103241.48
2019-05-14T08:47:53.145Z,103240.58
2019-05-14T08:48:53.726Z,103239.02
2019-05-14T08:49:54.250Z,103238.45
2019-05-14T08:50:54.910Z,103237.28
2019-05-14T08:51:54.971Z,103236.06
2019-05-14T08:52:58.119Z,103234.67
2019-05-14T08:53:58.956Z,103233.47
2019-05-14T08:55:07.251Z,103232.62
2019-05-14T08:55:58.885Z,103231.80
2019-05-14T08:56:58.513Z,103231.06
2019-05-14T08:57:59.330Z,103229.72
2019-05-14T08:58:59.427Z,103228.80
2019-05-14T08:59:59.912Z,103227.73
2019-05-14T09:01:00.282Z,103226.65
2019-05-14T09:02:06.278Z,103226.53
2019-05-14T09:03:03.167Z,103225.52
2019-05-14T09:04:01.538Z,103224.38
2019-05-14T09:05:04.918Z,103223.69
2019-05-14T09:05:13.093Z,103219.83
2019-05-14T09:06:14.397Z,103219.43
2019-05-14T09:07:14.837Z,103219.14
2019-05-14T09:08:14.294Z,103219.03
2019-05-14T09:09:18.122Z,103218.86
2019-05-14T09:10:15.481Z,103218.60
2019-05-14T09:11:22.859Z,103218.00
2019-05-14T09:12:18.799Z,103216.92
2019-05-14T09:13:18.501Z,103216.33
2019-05-14T09:14:18.801Z,103215.39
2019-05-14T09:15:18.825Z,103215.16
2019-05-14T09:16:38.078Z,103214.51
2019-05-14T09:17:19.830Z,103213.85
2019-05-14T09:18:21.394Z,103213.88
2019-05-14T09:19:22.009Z,103213.69
2019-05-14T09:20:22.476Z,103213.80
2019-05-14T09:21:23.171Z,103213.45
2019-05-14T09:22:23.747Z,103213.66
2019-05-14T09:23:24.611Z,103213.05
2019-05-14T09:24:25.525Z,103212.88
2019-05-14T09:25:25.172Z,103211.80
2019-05-14T09:26:28.342Z,103211.28
2019-05-14T09:27:25.605Z,103210.46
2019-05-14T09:28:28.562Z,103210.06
2019-05-14T09:29:29.853Z,103209.36
2019-05-14T09:30:29.001Z,103208.44
2019-05-14T09:31:29.565Z,103207.59
2019-05-14T09:32:29.250Z,103207.30
2019-05-14T09:33:29.754Z,103207.19
2019-05-14T09:34:30.046Z,103206.37
2019-05-14T09:35:31.757Z,103205.91
2019-05-14T09:36:32.211Z,103206.34
2019-05-14T09:37:32.848Z,103205.91
2019-05-14T09:38:33.326Z,103206.16
2019-05-14T09:39:34.229Z,103205.56
2019-05-14T09:40:34.355Z,103205.59
2019-05-14T09:41:33.774Z,103205.78
2019-05-14T09:42:35.601Z,103205.81
2019-05-14T09:43:39.266Z,103204.88
2019-05-14T09:44:38.688Z,103204.81
2019-05-14T09:45:38.792Z,103204.45
2019-05-14T09:46:38.502Z,103204.50
2019-05-14T09:47:38.967Z,103203.05
2019-05-14T09:48:38.977Z,103202.70
2019-05-14T09:49:40.497Z,103201.78
2019-05-14T09:50:41.090Z,103201.50
2019-05-14T09:51:41.844Z,103200.87
2019-05-14T09:52:41.879Z,103200.02
2019-05-14T09:53:42.453Z,103199.05
2019-05-14T09:54:44.178Z,103198.30
2019-05-14T09:55:42.368Z,103197.58
2019-05-14T09:56:43.660Z,103197.36
2019-05-14T09:57:44.250Z,103196.84
2019-05-14T09:58:44.933Z,103196.31
2019-05-14T09:59:47.830Z,103195.70
2019-05-14T10:00:45.234Z,103195.00
2019-05-14T10:01:45.298Z,103194.29
2019-05-14T10:02:49.209Z,103193.67
2019-05-14T10:03:49.354Z,103193.38
2019-05-14T10:04:49.071Z,103192.53
2019-05-14T10:05:50.207Z,103192.02
2019-05-14T10:06:48.701Z,103191.89
2019-05-14T10:07:49.654Z,103191.67
2019-05-14T10:08:49.555Z,103191.11
2019-05-14T10:09:50.299Z,103190.77
2019-05-14T10:10:51.790Z,103190.66
2019-05-14T10:11:52.374Z,103189.51
2019-05-14T10:12:01.400Z,103178.55
2019-05-14T10:13:02.780Z,103178.11
2019-05-14T10:14:02.459Z,103177.58
2019-05-14T10:15:03.921Z,103176.58
2019-05-14T10:16:03.999Z,103175.09
2019-05-14T10:17:04.539Z,103174.52
2019-05-14T10:18:05.203Z,103172.93
2019-05-14T10:19:04.794Z,103172.13
2019-05-14T10:20:08.833Z,103171.52
2019-05-14T10:21:08.336Z,103170.45
2019-05-14T10:22:08.272Z,103169.36
2019-05-14T10:23:09.272Z,103168.02
2019-05-14T10:24:09.334Z,103166.76
2019-05-14T10:25:09.152Z,103165.16
2019-05-14T10:26:09.254Z,103163.88
2019-05-14T10:27:09.287Z,103161.87
2019-05-14T10:28:09.904Z,103159.88
2019-05-14T10:29:11.472Z,103158.58
2019-05-14T10:30:12.052Z,103157.63
2019-05-14T10:31:13.395Z,103157.59
2019-05-14T10:32:12.076Z,103157.70
2019-05-14T10:33:14.933Z,103157.45
2019-05-14T10:34:13.306Z,103157.88
2019-05-14T10:35:15.239Z,103158.02
2019-05-14T10:36:18.755Z,103157.69
2019-05-14T10:37:15.546Z,103157.65
2019-05-14T10:38:19.010Z,103157.79
2019-05-14T10:39:19.201Z,103156.99
2019-05-14T10:40:18.392Z,103156.64
2019-05-14T10:41:18.526Z,103156.84
2019-05-14T10:42:20.112Z,103156.83
2019-05-14T10:43:19.609Z,103156.55
2019-05-14T10:44:19.486Z,103156.23
2019-05-14T10:45:20.710Z,103156.27
2019-05-14T10:46:21.340Z,103156.16
2019-05-14T10:47:22.010Z,103155.73
2019-05-14T10:48:22.785Z,103155.44
2019-05-14T10:49:23.950Z,103155.34
2019-05-14T10:50:22.547Z,103155.48
2019-05-14T10:51:24.173Z,103154.83
2019-05-14T10:52:24.995Z,103154.14
2019-05-14T10:53:28.685Z,103153.35
2019-05-14T10:54:26.994Z,103152.48
2019-05-14T10:55:27.814Z,103151.75
2019-05-14T10:56:29.503Z,103150.45
2019-05-14T10:57:29.000Z,103149.69
2019-05-14T10:58:29.045Z,103148.89
2019-05-14T10:59:29.416Z,103148.70
2019-05-14T11:00:29.065Z,103147.47
2019-05-14T11:01:30.716Z,103146.31
2019-05-14T11:02:30.751Z,103145.86
2019-05-14T11:03:31.696Z,103145.81
2019-05-14T11:04:34.388Z,103145.22
2019-05-14T11:05:32.291Z,103144.77
2019-05-14T11:06:34.182Z,103143.74
2019-05-14T11:07:34.731Z,103142.72
2019-05-14T11:08:35.442Z,103141.53
2019-05-14T11:09:38.080Z,103140.88
2019-05-14T11:10:35.835Z,103139.54
2019-05-14T11:11:38.214Z,103137.98
2019-05-14T11:12:39.388Z,103136.73
2019-05-14T11:13:39.407Z,103135.08
2019-05-14T11:14:39.024Z,103133.58
2019-05-14T11:15:39.522Z,103132.07
2019-05-14T11:16:41.992Z,103130.67
2019-05-14T11:17:40.665Z,103129.99
2019-05-14T11:18:40.549Z,103129.23
2019-05-14T11:19:41.149Z,103127.50
2019-05-14T11:20:43.092Z,103126.19
2019-05-14T11:21:43.612Z,103124.79
2019-05-14T11:22:44.457Z,103124.53